sensor_id;sensor_type;location;lat;lon;timestamp;P1;durP1;ratioP1;P2;durP2;ratioP2
48853;SDS011;34673;52.808;17.856;2023-06-14T00:02:18;7.13;;;4.30;;
48853;SDS011;34673;52.808;17.856;2023-06-14T00:04:46;4.95;;;3.42;;
48853;SDS011;34673;52.808;17.856;2023-06-14T00:07:15;7.15;;;3.65;;
48853;SDS011;34673;52.808;17.856;2023-06-14T00:09:43;7.15;;;3.65;;
48853;SDS011;34673;52.808;17.856;2023-06-14T00:12:10;6.13;;;3.53;;
48853;SDS011;34673;52.808;17.856;2023-06-14T00:14:37;6.68;;;4.10;;
48853;SDS011;34673;52.808;17.856;2023-06-14T00:17:05;7.63;;;3.88;;
48853;SDS011;34673;52.808;17.856;2023-06-14T00:19:34;7.40;;;4.50;;
48853;SDS011;34673;52.808;17.856;2023-06-14T00:22:03;8.90;;;4.00;;
48853;SDS011;34673;52.808;17.856;2023-06-14T00:24:30;7.53;;;4.68;;
48853;SDS011;34673;52.808;17.856;2023-06-14T00:26:58;7.43;;;4.43;;
48853;SDS011;34673;52.808;17.856;2023-06-14T00:29:25;6.55;;;4.53;;
48853;SDS011;34673;52.808;17.856;2023-06-14T00:31:52;6.90;;;4.30;;
48853;SDS011;34673;52.808;17.856;2023-06-14T00:34:20;7.03;;;4.90;;
48853;SDS011;34673;52.808;17.856;2023-06-14T00:36:47;7.55;;;4.80;;
48853;SDS011;34673;52.808;17.856;2023-06-14T00:39:14;9.70;;;4.43;;
48853;SDS011;34673;52.808;17.856;2023-06-14T00:41:42;9.07;;;4.85;;
48853;SDS011;34673;52.808;17.856;2023-06-14T00:44:09;7.25;;;4.50;;
48853;SDS011;34673;52.808;17.856;2023-06-14T00:46:36;8.32;;;4.45;;
48853;SDS011;34673;52.808;17.856;2023-06-14T00:49:04;9.02;;;4.75;;
48853;SDS011;34673;52.808;17.856;2023-06-14T00:51:31;6.95;;;4.30;;
48853;SDS011;34673;52.808;17.856;2023-06-14T00:53:59;10.50;;;4.80;;
48853;SDS011;34673;52.808;17.856;2023-06-14T00:56:27;5.90;;;4.13;;
48853;SDS011;34673;52.808;17.856;2023-06-14T00:58:55;7.03;;;4.50;;
48853;SDS011;34673;52.808;17.856;2023-06-14T01:01:23;11.60;;;5.20;;
48853;SDS011;34673;52.808;17.856;2023-06-14T01:03:50;6.82;;;4.40;;
48853;SDS011;34673;52.808;17.856;2023-06-14T01:11:59;7.95;;;4.60;;
48853;SDS011;34673;52.808;17.856;2023-06-14T01:14:32;7.75;;;5.15;;
48853;SDS011;34673;52.808;17.856;2023-06-14T01:17:02;8.10;;;4.55;;
48853;SDS011;34673;52.808;17.856;2023-06-14T01:19:30;7.57;;;4.30;;
48853;SDS011;34673;52.808;17.856;2023-06-14T01:22:01;7.07;;;4.70;;
48853;SDS011;34673;52.808;17.856;2023-06-14T01:24:29;7.22;;;4.38;;
48853;SDS011;34673;52.808;17.856;2023-06-14T01:26:59;11.02;;;4.85;;
48853;SDS011;34673;52.808;17.856;2023-06-14T01:29:28;8.63;;;5.18;;
48853;SDS011;34673;52.808;17.856;2023-06-14T01:31:59;9.93;;;4.50;;
48853;SDS011;34673;52.808;17.856;2023-06-14T01:34:30;8.43;;;4.47;;
48853;SDS011;34673;52.808;17.856;2023-06-14T01:36:58;9.25;;;4.43;;
48853;SDS011;34673;52.808;17.856;2023-06-14T01:39:28;19.02;;;5.18;;
48853;SDS011;34673;52.808;17.856;2023-06-14T01:41:57;7.18;;;4.28;;
48853;SDS011;34673;52.808;17.856;2023-06-14T01:44:25;7.65;;;4.25;;
48853;SDS011;34673;52.808;17.856;2023-06-14T01:46:54;12.73;;;4.57;;
48853;SDS011;34673;52.808;17.856;2023-06-14T01:49:21;7.90;;;4.07;;
48853;SDS011;34673;52.808;17.856;2023-06-14T01:51:49;11.65;;;4.47;;
48853;SDS011;34673;52.808;17.856;2023-06-14T01:54:16;10.38;;;4.00;;
48853;SDS011;34673;52.808;17.856;2023-06-14T01:56:44;5.85;;;3.85;;
48853;SDS011;34673;52.808;17.856;2023-06-14T01:59:11;7.15;;;3.88;;
48853;SDS011;34673;52.808;17.856;2023-06-14T02:01:38;6.95;;;4.00;;
48853;SDS011;34673;52.808;17.856;2023-06-14T02:04:06;7.85;;;4.53;;
48853;SDS011;34673;52.808;17.856;2023-06-14T02:06:33;9.13;;;5.00;;
48853;SDS011;34673;52.808;17.856;2023-06-14T02:09:01;7.25;;;4.32;;
48853;SDS011;34673;52.808;17.856;2023-06-14T02:11:29;8.18;;;4.00;;
48853;SDS011;34673;52.808;17.856;2023-06-14T02:13:57;6.65;;;4.10;;
48853;SDS011;34673;52.808;17.856;2023-06-14T02:16:26;8.68;;;4.47;;
48853;SDS011;34673;52.808;17.856;2023-06-14T02:18:56;8.52;;;4.65;;
48853;SDS011;34673;52.808;17.856;2023-06-14T02:21:23;7.40;;;4.38;;
48853;SDS011;34673;52.808;17.856;2023-06-14T02:23:51;7.43;;;4.20;;
48853;SDS011;34673;52.808;17.856;2023-06-14T02:26:19;6.97;;;4.18;;
48853;SDS011;34673;52.808;17.856;2023-06-14T02:28:47;7.47;;;4.40;;
48853;SDS011;34673;52.808;17.856;2023-06-14T02:31:14;6.60;;;4.07;;
48853;SDS011;34673;52.808;17.856;2023-06-14T02:33:41;7.13;;;3.95;;
48853;SDS011;34673;52.808;17.856;2023-06-14T02:36:09;6.63;;;4.22;;
48853;SDS011;34673;52.808;17.856;2023-06-14T02:38:36;7.70;;;4.72;;
48853;SDS011;34673;52.808;17.856;2023-06-14T02:41:03;5.65;;;4.30;;
48853;SDS011;34673;52.808;17.856;2023-06-14T02:43:32;7.05;;;5.03;;
48853;SDS011;34673;52.808;17.856;2023-06-14T02:46:00;12.20;;;5.70;;
48853;SDS011;34673;52.808;17.856;2023-06-14T02:48:27;8.05;;;5.53;;
48853;SDS011;34673;52.808;17.856;2023-06-14T02:50:54;7.63;;;5.40;;
48853;SDS011;34673;52.808;17.856;2023-06-14T02:53:23;7.57;;;5.03;;
48853;SDS011;34673;52.808;17.856;2023-06-14T02:55:50;7.18;;;5.25;;
48853;SDS011;34673;52.808;17.856;2023-06-14T02:58:19;8.15;;;4.97;;
48853;SDS011;34673;52.808;17.856;2023-06-14T03:00:46;6.80;;;5.10;;
48853;SDS011;34673;52.808;17.856;2023-06-14T03:03:14;7.97;;;5.63;;
48853;SDS011;34673;52.808;17.856;2023-06-14T03:05:50;8.23;;;5.05;;
48853;SDS011;34673;52.808;17.856;2023-06-14T03:08:21;7.72;;;4.53;;
48853;SDS011;34673;52.808;17.856;2023-06-14T03:10:56;7.43;;;5.13;;
48853;SDS011;34673;52.808;17.856;2023-06-14T03:13:25;8.30;;;4.95;;
48853;SDS011;34673;52.808;17.856;2023-06-14T03:15:53;5.78;;;4.88;;
48853;SDS011;34673;52.808;17.856;2023-06-14T03:18:24;8.20;;;5.32;;
48853;SDS011;34673;52.808;17.856;2023-06-14T03:20:54;9.38;;;5.10;;
48853;SDS011;34673;52.808;17.856;2023-06-14T03:23:25;7.28;;;5.20;;
48853;SDS011;34673;52.808;17.856;2023-06-14T03:25:52;8.32;;;5.38;;
48853;SDS011;34673;52.808;17.856;2023-06-14T03:28:20;9.10;;;5.55;;
48853;SDS011;34673;52.808;17.856;2023-06-14T03:30:49;7.30;;;4.85;;
48853;SDS011;34673;52.808;17.856;2023-06-14T03:33:16;7.60;;;5.18;;
48853;SDS011;34673;52.808;17.856;2023-06-14T03:35:44;9.07;;;5.43;;
48853;SDS011;34673;52.808;17.856;2023-06-14T03:38:11;7.13;;;4.60;;
48853;SDS011;34673;52.808;17.856;2023-06-14T03:40:39;8.40;;;5.18;;
48853;SDS011;34673;52.808;17.856;2023-06-14T03:43:06;8.13;;;5.38;;
48853;SDS011;34673;52.808;17.856;2023-06-14T03:45:33;8.20;;;5.38;;
48853;SDS011;34673;52.808;17.856;2023-06-14T03:48:01;8.02;;;5.78;;
48853;SDS011;34673;52.808;17.856;2023-06-14T03:50:30;8.07;;;5.15;;
48853;SDS011;34673;52.808;17.856;2023-06-14T03:52:59;8.10;;;5.72;;
48853;SDS011;34673;52.808;17.856;2023-06-14T03:55:28;8.02;;;5.82;;
48853;SDS011;34673;52.808;17.856;2023-06-14T03:58:01;8.52;;;5.55;;
48853;SDS011;34673;52.808;17.856;2023-06-14T04:00:29;7.30;;;5.82;;
48853;SDS011;34673;52.808;17.856;2023-06-14T04:02:56;11.27;;;6.32;;
48853;SDS011;34673;52.808;17.856;2023-06-14T04:05:24;7.65;;;5.93;;
48853;SDS011;34673;52.808;17.856;2023-06-14T04:07:55;8.48;;;6.07;;
48853;SDS011;34673;52.808;17.856;2023-06-14T04:10:22;14.00;;;6.70;;
48853;SDS011;34673;52.808;17.856;2023-06-14T04:12:50;10.75;;;6.50;;
48853;SDS011;34673;52.808;17.856;2023-06-14T04:15:18;7.72;;;5.82;;
48853;SDS011;34673;52.808;17.856;2023-06-14T04:17:50;8.13;;;6.40;;
48853;SDS011;34673;52.808;17.856;2023-06-14T04:20:21;9.10;;;6.53;;
48853;SDS011;34673;52.808;17.856;2023-06-14T04:22:51;12.48;;;6.88;;
48853;SDS011;34673;52.808;17.856;2023-06-14T04:25:19;8.00;;;6.18;;
48853;SDS011;34673;52.808;17.856;2023-06-14T04:27:51;11.98;;;6.60;;
48853;SDS011;34673;52.808;17.856;2023-06-14T04:30:20;11.73;;;6.45;;
48853;SDS011;34673;52.808;17.856;2023-06-14T04:32:54;9.63;;;7.05;;
48853;SDS011;34673;52.808;17.856;2023-06-14T04:35:23;9.55;;;6.78;;
48853;SDS011;34673;52.808;17.856;2023-06-14T04:37:51;9.20;;;6.80;;
48853;SDS011;34673;52.808;17.856;2023-06-14T04:40:21;9.43;;;6.90;;
48853;SDS011;34673;52.808;17.856;2023-06-14T04:42:48;12.60;;;7.93;;
48853;SDS011;34673;52.808;17.856;2023-06-14T04:45:18;9.35;;;6.90;;
48853;SDS011;34673;52.808;17.856;2023-06-14T04:47:46;9.60;;;7.53;;
48853;SDS011;34673;52.808;17.856;2023-06-14T04:50:14;9.43;;;6.90;;
48853;SDS011;34673;52.808;17.856;2023-06-14T04:52:41;10.05;;;7.93;;
48853;SDS011;34673;52.808;17.856;2023-06-14T04:55:10;9.30;;;6.97;;
48853;SDS011;34673;52.808;17.856;2023-06-14T04:57:37;9.65;;;7.53;;
48853;SDS011;34673;52.808;17.856;2023-06-14T05:00:07;9.38;;;7.05;;
48853;SDS011;34673;52.808;17.856;2023-06-14T05:02:36;10.43;;;8.18;;
48853;SDS011;34673;52.808;17.856;2023-06-14T05:05:05;9.93;;;7.13;;
48853;SDS011;34673;52.808;17.856;2023-06-14T05:07:33;11.18;;;7.70;;
48853;SDS011;34673;52.808;17.856;2023-06-14T05:10:00;10.35;;;7.53;;
48853;SDS011;34673;52.808;17.856;2023-06-14T05:12:28;10.65;;;7.78;;
48853;SDS011;34673;52.808;17.856;2023-06-14T05:14:57;9.30;;;7.05;;
48853;SDS011;34673;52.808;17.856;2023-06-14T05:17:26;14.20;;;7.47;;
48853;SDS011;34673;52.808;17.856;2023-06-14T05:19:54;12.30;;;8.23;;
48853;SDS011;34673;52.808;17.856;2023-06-14T05:22:22;9.60;;;7.38;;
48853;SDS011;34673;52.808;17.856;2023-06-14T05:24:50;9.32;;;7.20;;
48853;SDS011;34673;52.808;17.856;2023-06-14T05:27:17;9.80;;;7.50;;
48853;SDS011;34673;52.808;17.856;2023-06-14T05:29:45;13.10;;;7.88;;
48853;SDS011;34673;52.808;17.856;2023-06-14T05:32:12;12.98;;;7.53;;
48853;SDS011;34673;52.808;17.856;2023-06-14T05:34:40;9.38;;;6.90;;
48853;SDS011;34673;52.808;17.856;2023-06-14T05:37:07;11.77;;;7.32;;
48853;SDS011;34673;52.808;17.856;2023-06-14T05:39:34;12.65;;;7.75;;
48853;SDS011;34673;52.808;17.856;2023-06-14T05:42:02;10.00;;;7.82;;
48853;SDS011;34673;52.808;17.856;2023-06-14T05:44:29;10.52;;;7.63;;
48853;SDS011;34673;52.808;17.856;2023-06-14T05:46:56;12.95;;;8.20;;
48853;SDS011;34673;52.808;17.856;2023-06-14T05:49:24;12.45;;;7.90;;
48853;SDS011;34673;52.808;17.856;2023-06-14T05:51:51;10.55;;;7.53;;
48853;SDS011;34673;52.808;17.856;2023-06-14T05:54:19;10.73;;;8.68;;
48853;SDS011;34673;52.808;17.856;2023-06-14T05:56:46;12.55;;;8.43;;
48853;SDS011;34673;52.808;17.856;2023-06-14T05:59:13;11.95;;;7.95;;
48853;SDS011;34673;52.808;17.856;2023-06-14T06:01:41;11.23;;;8.30;;
48853;SDS011;34673;52.808;17.856;2023-06-14T06:04:08;11.25;;;8.77;;
48853;SDS011;34673;52.808;17.856;2023-06-14T06:06:36;12.57;;;8.13;;
48853;SDS011;34673;52.808;17.856;2023-06-14T06:09:03;13.48;;;8.55;;
48853;SDS011;34673;52.808;17.856;2023-06-14T06:11:31;12.43;;;8.65;;
48853;SDS011;34673;52.808;17.856;2023-06-14T06:14:14;10.90;;;7.78;;
48853;SDS011;34673;52.808;17.856;2023-06-14T06:16:41;9.25;;;7.03;;
48853;SDS011;34673;52.808;17.856;2023-06-14T06:19:09;12.25;;;7.63;;
48853;SDS011;34673;52.808;17.856;2023-06-14T06:21:36;12.60;;;7.93;;
48853;SDS011;34673;52.808;17.856;2023-06-14T06:24:04;11.10;;;7.70;;
48853;SDS011;34673;52.808;17.856;2023-06-14T06:26:32;9.48;;;7.13;;
48853;SDS011;34673;52.808;17.856;2023-06-14T06:28:59;10.75;;;7.72;;
48853;SDS011;34673;52.808;17.856;2023-06-14T06:31:27;12.50;;;7.00;;
48853;SDS011;34673;52.808;17.856;2023-06-14T06:33:54;11.80;;;6.72;;
48853;SDS011;34673;52.808;17.856;2023-06-14T06:36:22;11.65;;;6.80;;
48853;SDS011;34673;52.808;17.856;2023-06-14T06:38:50;10.15;;;7.28;;
48853;SDS011;34673;52.808;17.856;2023-06-14T06:41:18;11.45;;;7.18;;
48853;SDS011;34673;52.808;17.856;2023-06-14T06:43:45;10.82;;;7.10;;
48853;SDS011;34673;52.808;17.856;2023-06-14T06:46:15;9.73;;;7.50;;
48853;SDS011;34673;52.808;17.856;2023-06-14T06:48:44;14.98;;;7.70;;
48853;SDS011;34673;52.808;17.856;2023-06-14T06:51:12;10.50;;;8.30;;
48853;SDS011;34673;52.808;17.856;2023-06-14T06:53:41;11.00;;;7.90;;
48853;SDS011;34673;52.808;17.856;2023-06-14T06:56:15;10.52;;;7.60;;
48853;SDS011;34673;52.808;17.856;2023-06-14T06:58:42;12.40;;;7.70;;
48853;SDS011;34673;52.808;17.856;2023-06-14T07:01:09;12.35;;;7.55;;
48853;SDS011;34673;52.808;17.856;2023-06-14T07:03:37;16.05;;;7.38;;
48853;SDS011;34673;52.808;17.856;2023-06-14T07:06:04;10.48;;;7.45;;
48853;SDS011;34673;52.808;17.856;2023-06-14T07:08:32;11.85;;;7.30;;
48853;SDS011;34673;52.808;17.856;2023-06-14T07:10:59;11.07;;;7.20;;
48853;SDS011;34673;52.808;17.856;2023-06-14T07:13:27;12.77;;;7.97;;
48853;SDS011;34673;52.808;17.856;2023-06-14T07:15:54;11.02;;;7.35;;
48853;SDS011;34673;52.808;17.856;2023-06-14T07:18:24;11.15;;;7.00;;
48853;SDS011;34673;52.808;17.856;2023-06-14T07:20:51;11.25;;;6.72;;
48853;SDS011;34673;52.808;17.856;2023-06-14T07:23:18;11.57;;;7.32;;
48853;SDS011;34673;52.808;17.856;2023-06-14T07:25:46;10.70;;;6.50;;
48853;SDS011;34673;52.808;17.856;2023-06-14T07:28:14;12.43;;;6.60;;
48853;SDS011;34673;52.808;17.856;2023-06-14T07:30:41;11.77;;;6.53;;
48853;SDS011;34673;52.808;17.856;2023-06-14T07:33:08;15.10;;;7.15;;
48853;SDS011;34673;52.808;17.856;2023-06-14T07:35:37;10.65;;;6.65;;
48853;SDS011;34673;52.808;17.856;2023-06-14T07:38:08;13.65;;;7.68;;
48853;SDS011;34673;52.808;17.856;2023-06-14T07:40:35;11.35;;;6.88;;
48853;SDS011;34673;52.808;17.856;2023-06-14T07:43:03;11.52;;;7.43;;
48853;SDS011;34673;52.808;17.856;2023-06-14T07:45:30;9.52;;;6.47;;
48853;SDS011;34673;52.808;17.856;2023-06-14T07:47:58;11.45;;;6.88;;
48853;SDS011;34673;52.808;17.856;2023-06-14T07:50:25;12.40;;;6.50;;
48853;SDS011;34673;52.808;17.856;2023-06-14T07:52:52;9.82;;;6.00;;
48853;SDS011;34673;52.808;17.856;2023-06-14T07:55:19;9.40;;;6.10;;
48853;SDS011;34673;52.808;17.856;2023-06-14T07:57:47;10.30;;;5.70;;
48853;SDS011;34673;52.808;17.856;2023-06-14T08:00:14;10.13;;;6.35;;
48853;SDS011;34673;52.808;17.856;2023-06-14T08:02:42;10.60;;;6.72;;
48853;SDS011;34673;52.808;17.856;2023-06-14T08:05:10;11.20;;;6.95;;
48853;SDS011;34673;52.808;17.856;2023-06-14T08:07:38;9.77;;;6.68;;
48853;SDS011;34673;52.808;17.856;2023-06-14T08:10:06;9.10;;;6.40;;
48853;SDS011;34673;52.808;17.856;2023-06-14T08:12:34;11.27;;;6.13;;
48853;SDS011;34673;52.808;17.856;2023-06-14T08:15:01;11.20;;;6.25;;
48853;SDS011;34673;52.808;17.856;2023-06-14T08:17:40;8.77;;;6.03;;
48853;SDS011;34673;52.808;17.856;2023-06-14T08:20:09;11.35;;;7.00;;
48853;SDS011;34673;52.808;17.856;2023-06-14T08:22:37;13.05;;;6.40;;
48853;SDS011;34673;52.808;17.856;2023-06-14T08:25:06;11.68;;;6.40;;
48853;SDS011;34673;52.808;17.856;2023-06-14T08:27:34;9.48;;;5.75;;
48853;SDS011;34673;52.808;17.856;2023-06-14T08:30:01;10.20;;;6.50;;
48853;SDS011;34673;52.808;17.856;2023-06-14T08:32:30;14.00;;;7.38;;
48853;SDS011;34673;52.808;17.856;2023-06-14T08:34:57;14.57;;;6.90;;
48853;SDS011;34673;52.808;17.856;2023-06-14T08:37:31;12.07;;;7.45;;
48853;SDS011;34673;52.808;17.856;2023-06-14T08:40:00;12.80;;;8.32;;
48853;SDS011;34673;52.808;17.856;2023-06-14T08:42:31;11.35;;;7.65;;
48853;SDS011;34673;52.808;17.856;2023-06-14T08:45:00;10.88;;;6.88;;
48853;SDS011;34673;52.808;17.856;2023-06-14T08:47:27;11.95;;;6.72;;
48853;SDS011;34673;52.808;17.856;2023-06-14T08:49:56;12.25;;;6.22;;
48853;SDS011;34673;52.808;17.856;2023-06-14T08:52:25;10.77;;;5.97;;
48853;SDS011;34673;52.808;17.856;2023-06-14T08:55:00;15.23;;;6.50;;
48853;SDS011;34673;52.808;17.856;2023-06-14T08:57:29;12.95;;;5.93;;
48853;SDS011;34673;52.808;17.856;2023-06-14T08:59:57;10.60;;;5.78;;
48853;SDS011;34673;52.808;17.856;2023-06-14T09:02:28;10.40;;;5.32;;
48853;SDS011;34673;52.808;17.856;2023-06-14T09:04:56;10.73;;;5.57;;
48853;SDS011;34673;52.808;17.856;2023-06-14T09:10:10;9.80;;;4.60;;
48853;SDS011;34673;52.808;17.856;2023-06-14T09:12:39;9.68;;;4.43;;
48853;SDS011;34673;52.808;17.856;2023-06-14T09:15:06;6.80;;;4.45;;
48853;SDS011;34673;52.808;17.856;2023-06-14T09:17:36;10.13;;;4.50;;
48853;SDS011;34673;52.808;17.856;2023-06-14T09:20:04;8.15;;;4.80;;
48853;SDS011;34673;52.808;17.856;2023-06-14T09:22:33;10.30;;;5.00;;
48853;SDS011;34673;52.808;17.856;2023-06-14T09:25:00;9.32;;;4.80;;
48853;SDS011;34673;52.808;17.856;2023-06-14T09:27:29;10.18;;;5.30;;
48853;SDS011;34673;52.808;17.856;2023-06-14T09:32:26;7.15;;;4.32;;
48853;SDS011;34673;52.808;17.856;2023-06-14T09:34:53;10.82;;;4.82;;
48853;SDS011;34673;52.808;17.856;2023-06-14T09:37:30;10.07;;;4.40;;
48853;SDS011;34673;52.808;17.856;2023-06-14T09:39:59;13.32;;;4.70;;
48853;SDS011;34673;52.808;17.856;2023-06-14T09:42:27;10.35;;;4.80;;
48853;SDS011;34673;52.808;17.856;2023-06-14T09:44:55;7.25;;;4.22;;
48853;SDS011;34673;52.808;17.856;2023-06-14T09:47:23;8.98;;;4.13;;
48853;SDS011;34673;52.808;17.856;2023-06-14T09:49:52;8.85;;;3.92;;
48853;SDS011;34673;52.808;17.856;2023-06-14T09:52:22;7.75;;;4.15;;
48853;SDS011;34673;52.808;17.856;2023-06-14T09:54:50;6.15;;;3.80;;
48853;SDS011;34673;52.808;17.856;2023-06-14T09:57:21;10.70;;;4.00;;
48853;SDS011;34673;52.808;17.856;2023-06-14T09:59:56;9.32;;;4.10;;
48853;SDS011;34673;52.808;17.856;2023-06-14T10:02:29;9.82;;;4.13;;
48853;SDS011;34673;52.808;17.856;2023-06-14T10:05:09;7.28;;;4.50;;
48853;SDS011;34673;52.808;17.856;2023-06-14T10:07:50;6.82;;;4.07;;
48853;SDS011;34673;52.808;17.856;2023-06-14T10:10:22;10.23;;;4.38;;
48853;SDS011;34673;52.808;17.856;2023-06-14T10:12:50;8.35;;;4.60;;
48853;SDS011;34673;52.808;17.856;2023-06-14T10:15:29;9.98;;;4.65;;
48853;SDS011;34673;52.808;17.856;2023-06-14T10:21:05;9.75;;;4.63;;
48853;SDS011;34673;52.808;17.856;2023-06-14T10:23:44;7.32;;;4.18;;
48853;SDS011;34673;52.808;17.856;2023-06-14T10:26:17;8.35;;;4.18;;
48853;SDS011;34673;52.808;17.856;2023-06-14T10:28:57;7.15;;;3.22;;
48853;SDS011;34673;52.808;17.856;2023-06-14T10:31:41;8.80;;;3.45;;
48853;SDS011;34673;52.808;17.856;2023-06-14T10:34:09;7.03;;;3.50;;
48853;SDS011;34673;52.808;17.856;2023-06-14T10:36:37;7.95;;;3.70;;
48853;SDS011;34673;52.808;17.856;2023-06-14T10:39:09;10.20;;;3.70;;
48853;SDS011;34673;52.808;17.856;2023-06-14T10:41:54;8.73;;;4.35;;
48853;SDS011;34673;52.808;17.856;2023-06-14T10:46:53;8.13;;;4.47;;
48853;SDS011;34673;52.808;17.856;2023-06-14T10:52:12;9.63;;;4.90;;
48853;SDS011;34673;52.808;17.856;2023-06-14T10:57:52;11.18;;;4.55;;
48853;SDS011;34673;52.808;17.856;2023-06-14T11:00:27;10.48;;;4.65;;
48853;SDS011;34673;52.808;17.856;2023-06-14T11:05:53;11.30;;;5.00;;
48853;SDS011;34673;52.808;17.856;2023-06-14T11:11:10;8.50;;;4.90;;
48853;SDS011;34673;52.808;17.856;2023-06-14T11:13:44;11.98;;;4.80;;
48853;SDS011;34673;52.808;17.856;2023-06-14T11:16:15;8.93;;;4.70;;
48853;SDS011;34673;52.808;17.856;2023-06-14T11:18:46;10.25;;;4.57;;
48853;SDS011;34673;52.808;17.856;2023-06-14T11:21:17;11.70;;;4.78;;
48853;SDS011;34673;52.808;17.856;2023-06-14T11:23:51;8.02;;;4.53;;
48853;SDS011;34673;52.808;17.856;2023-06-14T11:26:28;16.10;;;4.70;;
48853;SDS011;34673;52.808;17.856;2023-06-14T11:28:57;10.77;;;4.65;;
48853;SDS011;34673;52.808;17.856;2023-06-14T11:31:26;8.13;;;4.28;;
48853;SDS011;34673;52.808;17.856;2023-06-14T11:33:56;10.13;;;4.82;;
48853;SDS011;34673;52.808;17.856;2023-06-14T11:36:30;9.55;;;4.55;;
48853;SDS011;34673;52.808;17.856;2023-06-14T11:39:02;7.45;;;3.60;;
48853;SDS011;34673;52.808;17.856;2023-06-14T11:41:36;6.88;;;3.60;;
48853;SDS011;34673;52.808;17.856;2023-06-14T11:44:06;9.70;;;3.50;;
48853;SDS011;34673;52.808;17.856;2023-06-14T11:46:34;8.77;;;3.78;;
48853;SDS011;34673;52.808;17.856;2023-06-14T11:49:09;16.00;;;4.10;;
48853;SDS011;34673;52.808;17.856;2023-06-14T11:51:36;9.60;;;4.20;;
48853;SDS011;34673;52.808;17.856;2023-06-14T11:54:04;9.48;;;4.70;;
48853;SDS011;34673;52.808;17.856;2023-06-14T11:56:33;6.10;;;3.75;;
48853;SDS011;34673;52.808;17.856;2023-06-14T11:59:02;10.32;;;3.80;;
48853;SDS011;34673;52.808;17.856;2023-06-14T12:01:30;8.55;;;4.28;;
48853;SDS011;34673;52.808;17.856;2023-06-14T12:03:59;9.27;;;5.50;;
48853;SDS011;34673;52.808;17.856;2023-06-14T12:06:28;9.07;;;5.05;;
48853;SDS011;34673;52.808;17.856;2023-06-14T12:09:03;6.18;;;4.03;;
48853;SDS011;34673;52.808;17.856;2023-06-14T12:11:34;8.63;;;4.00;;
48853;SDS011;34673;52.808;17.856;2023-06-14T12:14:03;8.85;;;3.75;;
48853;SDS011;34673;52.808;17.856;2023-06-14T12:16:33;6.63;;;3.90;;
48853;SDS011;34673;52.808;17.856;2023-06-14T12:19:13;7.18;;;3.28;;
48853;SDS011;34673;52.808;17.856;2023-06-14T12:21:46;5.72;;;2.80;;
48853;SDS011;34673;52.808;17.856;2023-06-14T12:24:16;5.50;;;2.90;;
48853;SDS011;34673;52.808;17.856;2023-06-14T12:26:43;5.28;;;3.08;;
48853;SDS011;34673;52.808;17.856;2023-06-14T12:29:11;6.53;;;3.55;;
48853;SDS011;34673;52.808;17.856;2023-06-14T12:31:40;8.65;;;3.33;;
48853;SDS011;34673;52.808;17.856;2023-06-14T12:34:09;6.95;;;3.17;;
48853;SDS011;34673;52.808;17.856;2023-06-14T12:36:36;8.57;;;4.00;;
48853;SDS011;34673;52.808;17.856;2023-06-14T12:39:08;7.47;;;3.80;;
48853;SDS011;34673;52.808;17.856;2023-06-14T12:41:36;7.38;;;3.90;;
48853;SDS011;34673;52.808;17.856;2023-06-14T12:44:04;8.38;;;4.95;;
48853;SDS011;34673;52.808;17.856;2023-06-14T12:46:31;8.55;;;4.93;;
48853;SDS011;34673;52.808;17.856;2023-06-14T12:48:59;9.32;;;5.40;;
48853;SDS011;34673;52.808;17.856;2023-06-14T12:51:26;8.50;;;5.47;;
48853;SDS011;34673;52.808;17.856;2023-06-14T12:53:54;12.85;;;5.80;;
48853;SDS011;34673;52.808;17.856;2023-06-14T12:56:21;10.55;;;6.10;;
48853;SDS011;34673;52.808;17.856;2023-06-14T12:58:50;9.27;;;5.97;;
48853;SDS011;34673;52.808;17.856;2023-06-14T13:01:18;11.70;;;5.95;;
48853;SDS011;34673;52.808;17.856;2023-06-14T13:03:46;10.07;;;5.72;;
48853;SDS011;34673;52.808;17.856;2023-06-14T13:06:14;11.15;;;5.25;;
48853;SDS011;34673;52.808;17.856;2023-06-14T13:08:41;7.88;;;5.20;;
48853;SDS011;34673;52.808;17.856;2023-06-14T13:11:09;9.65;;;5.43;;
48853;SDS011;34673;52.808;17.856;2023-06-14T13:13:36;7.63;;;5.32;;
48853;SDS011;34673;52.808;17.856;2023-06-14T13:16:04;7.90;;;4.78;;
48853;SDS011;34673;52.808;17.856;2023-06-14T13:18:31;7.88;;;5.40;;
48853;SDS011;34673;52.808;17.856;2023-06-14T13:20:58;12.38;;;4.10;;
48853;SDS011;34673;52.808;17.856;2023-06-14T13:23:26;7.32;;;4.32;;
48853;SDS011;34673;52.808;17.856;2023-06-14T13:25:53;4.78;;;2.65;;
48853;SDS011;34673;52.808;17.856;2023-06-14T13:28:21;5.78;;;2.75;;
48853;SDS011;34673;52.808;17.856;2023-06-14T13:30:48;8.88;;;2.22;;
48853;SDS011;34673;52.808;17.856;2023-06-14T13:33:16;6.13;;;2.38;;
48853;SDS011;34673;52.808;17.856;2023-06-14T13:35:44;6.07;;;2.17;;
48853;SDS011;34673;52.808;17.856;2023-06-14T13:38:11;5.28;;;2.40;;
48853;SDS011;34673;52.808;17.856;2023-06-14T13:40:39;4.70;;;2.30;;
48853;SDS011;34673;52.808;17.856;2023-06-14T13:43:06;5.40;;;1.90;;
48853;SDS011;34673;52.808;17.856;2023-06-14T13:45:34;6.90;;;2.30;;
48853;SDS011;34673;52.808;17.856;2023-06-14T13:48:02;6.90;;;2.38;;
48853;SDS011;34673;52.808;17.856;2023-06-14T13:50:29;7.75;;;2.10;;
48853;SDS011;34673;52.808;17.856;2023-06-14T13:52:57;3.58;;;2.30;;
48853;SDS011;34673;52.808;17.856;2023-06-14T13:55:24;6.22;;;2.40;;
48853;SDS011;34673;52.808;17.856;2023-06-14T13:57:51;5.35;;;2.40;;
48853;SDS011;34673;52.808;17.856;2023-06-14T14:00:19;6.00;;;2.50;;
48853;SDS011;34673;52.808;17.856;2023-06-14T14:02:49;6.25;;;2.75;;
48853;SDS011;34673;52.808;17.856;2023-06-14T14:05:17;4.13;;;2.47;;
48853;SDS011;34673;52.808;17.856;2023-06-14T14:07:44;6.72;;;2.60;;
48853;SDS011;34673;52.808;17.856;2023-06-14T14:10:12;7.63;;;2.50;;
48853;SDS011;34673;52.808;17.856;2023-06-14T14:12:43;5.70;;;2.85;;
48853;SDS011;34673;52.808;17.856;2023-06-14T14:15:14;5.03;;;2.55;;
48853;SDS011;34673;52.808;17.856;2023-06-14T14:17:41;5.60;;;2.58;;
48853;SDS011;34673;52.808;17.856;2023-06-14T14:20:09;6.00;;;2.95;;
48853;SDS011;34673;52.808;17.856;2023-06-14T14:22:43;7.85;;;2.90;;
48853;SDS011;34673;52.808;17.856;2023-06-14T14:25:10;6.55;;;2.60;;
48853;SDS011;34673;52.808;17.856;2023-06-14T14:27:37;4.90;;;2.75;;
48853;SDS011;34673;52.808;17.856;2023-06-14T14:30:06;6.75;;;2.90;;
48853;SDS011;34673;52.808;17.856;2023-06-14T14:32:33;6.00;;;3.10;;
48853;SDS011;34673;52.808;17.856;2023-06-14T14:35:01;7.65;;;2.72;;
48853;SDS011;34673;52.808;17.856;2023-06-14T14:37:28;6.95;;;3.00;;
48853;SDS011;34673;52.808;17.856;2023-06-14T14:39:56;12.23;;;3.20;;
48853;SDS011;34673;52.808;17.856;2023-06-14T14:42:23;7.13;;;2.78;;
48853;SDS011;34673;52.808;17.856;2023-06-14T14:44:50;7.40;;;3.35;;
48853;SDS011;34673;52.808;17.856;2023-06-14T14:47:18;10.15;;;3.50;;
48853;SDS011;34673;52.808;17.856;2023-06-14T14:49:45;6.55;;;3.30;;
48853;SDS011;34673;52.808;17.856;2023-06-14T14:52:13;7.07;;;3.28;;
48853;SDS011;34673;52.808;17.856;2023-06-14T14:54:50;9.38;;;3.80;;
48853;SDS011;34673;52.808;17.856;2023-06-14T14:57:18;10.60;;;3.60;;
48853;SDS011;34673;52.808;17.856;2023-06-14T14:59:45;7.70;;;3.35;;
48853;SDS011;34673;52.808;17.856;2023-06-14T15:02:13;11.05;;;3.70;;
48853;SDS011;34673;52.808;17.856;2023-06-14T15:04:40;12.45;;;3.13;;
48853;SDS011;34673;52.808;17.856;2023-06-14T15:07:08;9.43;;;3.30;;
48853;SDS011;34673;52.808;17.856;2023-06-14T15:09:36;7.68;;;3.60;;